createdAt,value
2018-07-24T11:35:43.180Z,47.20
2018-07-24T11:38:13.980Z,47.40
2018-07-24T11:40:44.306Z,47.10
2018-07-24T11:43:14.589Z,47.00
2018-07-24T11:45:44.991Z,47.10
2018-07-24T11:48:15.514Z,47.00
2018-07-24T11:50:45.908Z,46.90
2018-07-24T11:53:16.216Z,46.70
2018-07-24T11:55:47.213Z,46.70
2018-07-24T11:58:17.525Z,46.60
2018-07-24T12:00:47.918Z,46.70
2018-07-24T12:03:18.182Z,46.80
2018-07-24T12:05:48.611Z,46.80
2018-07-24T12:08:18.926Z,46.70
2018-07-24T12:10:49.226Z,46.90
2018-07-24T12:13:19.564Z,47.10
2018-07-24T12:15:49.870Z,47.10
2018-07-24T12:18:20.191Z,47.20
2018-07-24T12:20:51.361Z,47.30
2018-07-24T12:23:21.667Z,47.50
2018-07-24T12:25:52.084Z,47.70
2018-07-24T12:28:22.476Z,47.70
2018-07-24T12:30:53.765Z,47.90
2018-07-24T12:33:24.062Z,48.10
2018-07-24T12:35:54.869Z,48.30
2018-07-24T12:38:25.271Z,48.30
2018-07-24T12:40:55.572Z,48.20
2018-07-24T12:43:25.940Z,48.50
2018-07-24T12:45:56.294Z,48.30
2018-07-24T12:48:26.573Z,48.30
2018-07-24T12:50:56.870Z,48.70
2018-07-24T12:53:27.191Z,48.70
2018-07-24T12:55:57.518Z,48.90
2018-07-24T12:58:27.856Z,49.10
2018-07-24T13:00:58.181Z,49.40
2018-07-24T13:03:28.479Z,49.80
2018-07-24T13:05:58.861Z,50.20
2018-07-24T13:08:29.228Z,50.50
2018-07-24T13:10:59.632Z,50.90
2018-07-24T13:13:30.817Z,51.20
2018-07-24T13:16:02.134Z,51.50
2018-07-24T13:18:32.464Z,51.80
2018-07-24T13:21:02.833Z,52.20
2018-07-24T13:23:33.155Z,52.40
2018-07-24T13:26:03.438Z,52.60
2018-07-24T13:28:33.755Z,53.00
2018-07-24T13:31:04.144Z,53.20
2018-07-24T13:33:34.569Z,53.40
2018-07-24T13:36:05.189Z,53.60
2018-07-24T13:38:35.484Z,53.80
2018-07-24T13:41:09.484Z,53.70
2018-07-24T13:43:39.867Z,53.80
2018-07-24T13:46:10.234Z,54.00
2018-07-24T13:48:40.529Z,54.00
2018-07-24T13:51:11.207Z,54.10
2018-07-24T13:53:41.515Z,54.20
2018-07-24T13:56:11.885Z,54.30
2018-07-24T13:58:42.209Z,54.30
2018-07-24T14:01:12.511Z,54.30
2018-07-24T14:03:42.826Z,54.30
2018-07-24T14:06:13.261Z,54.30
2018-07-24T14:08:43.553Z,54.40
2018-07-24T14:11:13.942Z,54.40
2018-07-24T14:13:45.351Z,54.40
2018-07-24T14:16:15.695Z,54.40
2018-07-24T14:18:46.101Z,54.50
2018-07-24T14:21:16.442Z,54.50
2018-07-24T14:23:46.759Z,54.20
2018-07-24T14:26:17.102Z,53.80
2018-07-24T14:28:47.441Z,53.40
2018-07-24T14:31:17.844Z,52.90
2018-07-24T14:33:48.195Z,52.50
2018-07-24T14:36:18.887Z,52.00
2018-07-24T14:38:49.240Z,51.50
2018-07-24T14:41:19.617Z,51.00
2018-07-24T14:43:50.178Z,50.70
2018-07-24T14:46:20.553Z,50.60
2018-07-24T14:48:51.056Z,50.60
2018-07-24T14:51:21.384Z,50.40
2018-07-24T14:53:51.690Z,50.40
2018-07-24T14:56:22.021Z,50.30
2018-07-24T14:58:52.503Z,50.10
2018-07-24T15:01:22.876Z,50.00
2018-07-24T15:03:53.250Z,49.90
2018-07-24T15:06:23.632Z,49.50
2018-07-24T15:09:00.669Z,49.10
2018-07-24T15:14:00.571Z,48.60
2018-07-24T15:16:30.915Z,48.50
2018-07-24T15:19:01.226Z,48.40
2018-07-24T15:24:01.395Z,48.30
2018-07-24T15:26:31.733Z,48.30
2018-07-24T15:29:02.587Z,48.20
2018-07-24T15:31:32.961Z,48.20
2018-07-24T15:34:03.345Z,48.20
2018-07-24T15:36:34.053Z,48.20
2018-07-24T15:39:04.934Z,48.30
2018-07-24T15:41:37.013Z,48.30
2018-07-24T15:44:07.342Z,48.40
2018-07-24T15:46:37.777Z,48.50
2018-07-24T15:49:08.168Z,48.60
2018-07-24T15:51:38.474Z,48.60
2018-07-24T15:54:08.822Z,48.70
2018-07-24T15:56:39.141Z,48.90
2018-07-24T15:59:09.504Z,49.00
2018-07-24T16:01:39.932Z,49.00
2018-07-24T16:04:10.259Z,49.10
2018-07-24T16:06:40.632Z,49.10
2018-07-24T16:09:13.252Z,49.10
2018-07-24T16:11:43.637Z,49.10
2018-07-24T16:14:13.941Z,49.00
2018-07-24T16:16:44.269Z,49.00
2018-07-24T16:19:14.621Z,48.90
2018-07-24T16:21:44.982Z,48.90
2018-07-24T16:24:15.302Z,48.90
2018-07-24T16:26:45.637Z,48.90
2018-07-24T16:29:15.922Z,48.90
2018-07-24T16:31:46.390Z,48.90
2018-07-24T16:34:16.768Z,48.90
2018-07-24T16:36:47.644Z,48.80
2018-07-24T16:39:18.018Z,48.80
